Terminal Aerodrome Forecast
Issued by NWS

Home | Current Version | Previous Version | Text Only | Print | Product List | Glossary On
Versions: 1 2 3 4 5 6 7 8 9 10 11 12 13 14 15 16 17 18 19 20 21 22 23 24 25 26 27 28
000
FTUS45 KRIW 020525
TAFPNA
TAF
KPNA 020525Z 0206/0306 29006KT P6SM SCT110
     FM021300 VRB06KT P6SM SCT120
     FM022000 28014G24KT P6SM SCT100
     FM030100 29010KT P6SM SCT100
      AMD LTD TO CLD VIS AND WIND=

USA.gov is the U.S. government's official web portal to all federal, state and local government web resources and services.